Time;durP1;ratioP1;P1;durP2;ratioP2;P2;SDS_P1;SDS_P2;PMS_P1;PMS_P2;Temp;Humidity;BMP_temperature;BMP_pressure;BME280_temperature;BME280_humidity;BME280_pressure;Samples;Min_cycle;Max_cycle;Signal;HPM_P1;HPM_P2
2023/02/24 00:01:58;;;;;;;30.93;19.93;;;;;;;9.35;100.00;97719.91;5050996;28;20319;-78
2023/02/24 00:04:26;;;;;;;33.63;20.20;;;;;;;9.37;100.00;97728.56;5051081;28;20250;-78
2023/02/24 00:06:52;;;;;;;32.23;21.03;;;;;;;9.38;100.00;97730.25;5050732;28;20206;-78
2023/02/24 00:09:23;;;;;;;30.93;20.03;;;;;;;9.31;100.00;97726.38;5050908;28;20209;-78
2023/02/24 00:11:55;;;;;;;30.57;20.83;;;;;;;9.34;100.00;97724.34;5051194;28;20218;-78
2023/02/24 00:14:23;;;;;;;32.63;19.67;;;;;;;9.34;100.00;97718.22;5051146;28;20309;-78
2023/02/24 00:16:51;;;;;;;30.77;19.97;;;;;;;9.35;100.00;97722.53;5050606;28;20207;-78
2023/02/24 00:19:20;;;;;;;30.27;19.83;;;;;;;9.36;100.00;97721.63;5050921;28;20207;-78
2023/02/24 00:21:47;;;;;;;31.40;21.37;;;;;;;9.38;100.00;97714.44;5050567;28;20233;-78
2023/02/24 00:24:14;;;;;;;35.27;21.73;;;;;;;9.35;100.00;97710.22;5050849;28;20216;-78
2023/02/24 00:26:42;;;;;;;34.50;22.20;;;;;;;9.31;100.00;97718.47;5050194;28;20219;-78
2023/02/24 00:29:10;;;;;;;33.77;20.87;;;;;;;9.29;100.00;97707.16;5050894;28;20681;-78
2023/02/24 00:31:40;;;;;;;33.23;20.87;;;;;;;9.22;100.00;97705.91;5091401;22;20254;-89
2023/02/24 00:34:07;;;;;;;33.10;21.47;;;;;;;9.22;100.00;97708.53;5091451;28;20253;-89
2023/02/24 00:36:34;;;;;;;33.93;20.03;;;;;;;9.19;100.00;97698.22;5091688;28;20206;-89
2023/02/24 00:39:08;;;;;;;29.93;19.57;;;;;;;9.18;100.00;97696.53;5095911;28;20211;-88
2023/02/24 00:41:35;;;;;;;33.10;22.03;;;;;;;9.17;100.00;97689.59;5096009;28;20238;-88
2023/02/24 00:44:06;;;;;;;34.80;21.23;;;;;;;9.20;100.00;97697.28;5097166;28;20702;-88
2023/02/24 00:46:35;;;;;;;30.47;20.10;;;;;;;9.25;100.00;97697.78;5113801;28;20177;-87
2023/02/24 00:49:04;;;;;;;35.03;20.77;;;;;;;9.25;100.00;97692.53;5115547;28;20217;-88
2023/02/24 00:51:34;;;;;;;31.60;20.40;;;;;;;9.22;100.00;97687.44;5116347;28;20256;-88
2023/02/24 00:54:01;;;;;;;33.17;20.43;;;;;;;9.23;100.00;97683.88;5115680;28;20198;-86
2023/02/24 00:56:29;;;;;;;32.27;21.30;;;;;;;9.19;100.00;97687.69;5112092;28;20211;-88
2023/02/24 00:58:57;;;;;;;33.57;20.53;;;;;;;9.26;100.00;97688.94;5098344;28;20209;-88
2023/02/24 01:01:29;;;;;;;31.03;20.40;;;;;;;9.25;100.00;97693.34;5093107;28;20233;-88
2023/02/24 01:03:55;;;;;;;33.67;20.67;;;;;;;9.29;100.00;97688.69;5092526;28;20252;-88
2023/02/24 01:06:24;;;;;;;31.17;20.50;;;;;;;9.29;100.00;97694.81;5092146;28;20203;-89
2023/02/24 01:08:53;;;;;;;33.07;21.00;;;;;;;9.16;100.00;97693.16;5092279;28;20205;-88
2023/02/24 01:14:07;;;;;;;35.10;22.53;;;;;;;8.98;100.00;97694.44;5092187;28;20281;-88
2023/02/24 01:16:35;;;;;;;32.47;21.53;;;;;;;8.95;100.00;97694.66;5091736;28;20204;-88
2023/02/24 01:19:02;;;;;;;32.40;20.83;;;;;;;8.89;100.00;97681.91;5091770;28;20209;-90
2023/02/24 01:21:30;;;;;;;32.40;20.63;;;;;;;8.90;100.00;97680.97;5091769;28;20709;-89
2023/02/24 01:23:57;;;;;;;32.13;19.80;;;;;;;8.83;100.00;97675.28;5092213;28;20588;-90
2023/02/24 01:26:25;;;;;;;31.33;19.27;;;;;;;8.80;100.00;97672.00;5097045;28;20270;-90
2023/02/24 01:28:51;;;;;;;34.43;21.40;;;;;;;8.71;100.00;97676.13;5101676;28;20319;-90
2023/02/24 01:31:19;;;;;;;32.00;20.43;;;;;;;8.77;100.00;97669.59;5092272;28;20242;-90
2023/02/24 01:33:48;;;;;;;33.60;20.57;;;;;;;8.69;100.00;97677.19;5091744;28;20663;-90
2023/02/24 01:36:18;;;;;;;34.93;21.20;;;;;;;8.70;100.00;97663.06;5091681;28;20212;-89
2023/02/24 01:38:45;;;;;;;37.53;21.30;;;;;;;8.67;100.00;97669.38;5092082;28;20688;-90
2023/02/24 01:41:15;;;;;;;32.27;21.97;;;;;;;8.59;100.00;97657.69;5094750;28;20319;-90
2023/02/24 01:44:08;;;;;;;34.17;20.37;;;;;;;8.59;100.00;97657.69;5094852;28;20227;-90
2023/02/24 01:46:37;;;;;;;33.57;21.27;;;;;;;8.55;100.00;97658.84;5094478;28;20214;-90
2023/02/24 01:49:11;;;;;;;34.50;22.67;;;;;;;8.53;100.00;97658.09;5094605;28;20216;-90
2023/02/24 01:51:41;;;;;;;31.50;21.43;;;;;;;8.61;100.00;97653.16;5094662;28;20249;-90
2023/02/24 01:54:10;;;;;;;32.27;21.53;;;;;;;8.62;100.00;97649.59;5094378;28;20303;-90
2023/02/24 01:56:37;;;;;;;41.07;22.53;;;;;;;8.57;100.00;97652.53;5094022;28;20209;-90
2023/02/24 01:59:05;;;;;;;39.33;23.87;;;;;;;8.54;100.00;97652.75;5094513;28;20292;-89
2023/02/24 02:01:39;;;;;;;39.30;22.40;;;;;;;8.58;100.00;97642.84;5094027;28;20330;-89
2023/02/24 02:04:16;;;;;;;41.63;24.93;;;;;;;8.53;100.00;97644.94;5094410;28;20357;-89
2023/02/24 02:06:45;;;;;;;37.47;23.20;;;;;;;8.57;100.00;97635.88;5093696;28;20207;-90
2023/02/24 02:09:14;;;;;;;41.73;23.73;;;;;;;8.55;100.00;97643.03;5094221;28;20220;-90
2023/02/24 02:11:40;;;;;;;41.30;23.93;;;;;;;8.52;100.00;97646.72;5093911;28;20230;-90
2023/02/24 02:14:08;;;;;;;36.87;23.07;;;;;;;8.60;100.00;97636.50;5093773;28;20213;-90
2023/02/24 02:16:58;;;;;;;37.23;23.47;;;;;;;8.54;100.00;97636.09;5093651;28;20742;-90
2023/02/24 02:19:54;;;;;;;40.67;24.53;;;;;;;8.54;100.00;97630.81;5094300;28;20230;-90
2023/02/24 02:22:54;;;;;;;47.67;26.67;;;;;;;8.47;100.00;97619.03;5094385;28;20249;-90
2023/02/24 02:25:34;;;;;;;40.10;25.00;;;;;;;8.58;100.00;97621.75;5097741;28;20214;-90
2023/02/24 02:28:36;;;;;;;41.40;24.83;;;;;;;8.52;100.00;97623.00;5100131;28;20218;-90
2023/02/24 02:31:27;;;;;;;45.23;24.73;;;;;;;8.53;100.00;97613.34;5082957;28;20243;-89
2023/02/24 02:34:26;;;;;;;42.07;24.70;;;;;;;8.51;100.00;97617.88;5085792;28;20328;-91
2023/02/24 02:36:59;;;;;;;39.57;24.90;;;;;;;8.48;100.00;97615.44;5093802;28;20215;-90
2023/02/24 02:39:34;;;;;;;41.63;25.73;;;;;;;8.44;100.00;97619.25;5094264;28;20511;-90
2023/02/24 02:42:13;;;;;;;45.23;27.67;;;;;;;8.42;100.00;97613.22;5093835;28;20227;-91
2023/02/24 02:44:47;;;;;;;43.53;26.57;;;;;;;8.45;100.00;97613.03;5093970;28;20203;-90
2023/02/24 02:47:21;;;;;;;45.40;26.63;;;;;;;8.42;100.00;97606.19;5093178;28;20230;-91
2023/02/24 02:49:55;;;;;;;42.97;25.87;;;;;;;8.39;100.00;97609.00;5093412;28;20214;-91
2023/02/24 02:52:26;;;;;;;44.70;25.57;;;;;;;8.40;100.00;97612.50;5093682;28;20215;-90
2023/02/24 02:54:56;;;;;;;47.20;26.03;;;;;;;8.42;100.00;97605.31;5093811;28;20205;-91
2023/02/24 02:57:26;;;;;;;45.77;26.23;;;;;;;8.43;100.00;97599.09;5093081;28;20225;-90
2023/02/24 02:59:59;;;;;;;40.30;24.37;;;;;;;8.41;100.00;97596.59;5093364;28;20218;-91
2023/02/24 03:02:29;;;;;;;40.97;24.10;;;;;;;8.49;100.00;97596.91;5093127;28;20684;-90
2023/02/24 03:05:00;;;;;;;45.67;24.80;;;;;;;8.46;100.00;97585.75;5093456;28;20200;-90
2023/02/24 03:07:33;;;;;;;42.60;25.10;;;;;;;8.43;100.00;97583.31;5093177;28;20203;-91
2023/02/24 03:10:08;;;;;;;45.27;24.57;;;;;;;8.40;100.00;97586.16;5093244;28;20208;-91
2023/02/24 03:12:36;;;;;;;39.17;23.67;;;;;;;8.35;100.00;97585.63;5092872;28;20211;-91
2023/02/24 03:15:09;;;;;;;40.77;24.23;;;;;;;8.31;100.00;97577.09;5092970;28;20234;-91
2023/02/24 03:17:40;;;;;;;43.67;25.77;;;;;;;8.30;100.00;97577.22;5092893;28;20209;-90
2023/02/24 03:20:16;;;;;;;45.77;25.87;;;;;;;8.33;100.00;97569.13;5093015;28;20233;-90
2023/02/24 03:22:48;;;;;;;39.70;25.00;;;;;;;8.37;100.00;97571.41;5092647;28;20260;-91
2023/02/24 03:25:15;;;;;;;42.00;24.93;;;;;;;8.39;100.00;97561.63;5093167;28;20219;-90
2023/02/24 03:27:47;;;;;;;41.33;24.47;;;;;;;8.34;100.00;97571.63;5092917;28;20218;-91
2023/02/24 03:30:17;;;;;;;44.07;25.03;;;;;;;8.29;100.00;97562.38;5092666;28;20253;-90
2023/02/24 03:32:54;;;;;;;42.30;25.20;;;;;;;8.27;100.00;97567.72;5092918;28;20212;-90
2023/02/24 03:35:25;;;;;;;42.47;25.70;;;;;;;8.25;100.00;97564.38;5092679;28;20313;-90
2023/02/24 03:37:54;;;;;;;44.87;25.27;;;;;;;8.27;100.00;97561.63;5092424;28;20265;-90
2023/02/24 03:40:21;;;;;;;46.07;25.23;;;;;;;8.30;100.00;97561.41;5092727;28;20915;-91
2023/02/24 03:43:03;;;;;;;49.70;26.03;;;;;;;8.29;100.00;97562.38;5092626;28;20228;-90
2023/02/24 03:45:33;;;;;;;44.00;24.93;;;;;;;8.28;100.00;97563.31;5092427;28;20212;-90
2023/02/24 03:48:01;;;;;;;41.70;24.87;;;;;;;8.36;100.00;97574.16;5092057;28;20217;-90
2023/02/24 03:50:31;;;;;;;43.43;24.33;;;;;;;8.38;100.00;97565.19;5092469;28;20326;-92
2023/02/24 03:53:10;;;;;;;40.77;23.53;;;;;;;8.36;100.00;97566.25;5092308;28;20200;-90
2023/02/24 03:55:57;;;;;;;41.83;24.37;;;;;;;8.30;100.00;97561.41;5092370;28;20208;-90
2023/02/24 03:58:37;;;;;;;44.30;24.10;;;;;;;8.29;100.00;97562.38;5092137;28;20645;-92
2023/02/24 04:01:13;;;;;;;41.30;23.20;;;;;;;8.32;100.00;97563.00;5091648;28;20231;-90
2023/02/24 04:03:56;;;;;;;41.10;24.97;;;;;;;8.26;100.00;97563.41;5092191;28;20224;-92
2023/02/24 04:06:32;;;;;;;50.50;25.93;;;;;;;8.25;100.00;97568.78;5092192;28;20297;-90
2023/02/24 04:09:11;;;;;;;46.80;25.23;;;;;;;8.26;100.00;97573.13;5092236;28;20208;-90
2023/02/24 04:11:44;;;;;;;40.70;24.17;;;;;;;8.29;100.00;97567.63;5092130;28;20238;-90
2023/02/24 04:14:18;;;;;;;47.07;26.67;;;;;;;8.27;100.00;97564.28;5092083;28;20210;-90
2023/02/24 04:16:52;;;;;;;54.30;28.07;;;;;;;8.28;100.00;97565.94;5091961;28;20208;-90
2023/02/24 04:19:26;;;;;;;46.73;26.90;;;;;;;8.31;100.00;97560.47;5091786;28;20255;-90
2023/02/24 04:21:54;;;;;;;49.70;29.23;;;;;;;8.31;100.00;97561.31;5092012;28;20224;-90
2023/02/24 04:24:26;;;;;;;52.70;29.07;;;;;;;8.31;100.00;97565.72;5091681;28;20228;-90
2023/02/24 04:26:57;;;;;;;54.70;29.27;;;;;;;8.25;100.00;97558.25;5091873;28;20201;-88
2023/02/24 04:29:34;;;;;;;50.87;29.67;;;;;;;8.23;100.00;97552.25;5091881;28;20184;-92
2023/02/24 04:32:03;;;;;;;56.27;31.67;;;;;;;8.23;100.00;97552.25;5092052;28;20236;-90
2023/02/24 04:34:31;;;;;;;52.47;28.70;;;;;;;8.24;100.00;97559.19;5091872;28;20210;-91
2023/02/24 04:37:01;;;;;;;58.07;30.63;;;;;;;8.19;100.00;97556.00;5091907;28;20213;-90
2023/02/24 04:39:29;;;;;;;55.33;29.27;;;;;;;8.25;100.00;97550.34;5092168;28;20676;-90
2023/02/24 04:41:56;;;;;;;58.60;30.13;;;;;;;8.20;100.00;97552.47;5092107;28;20317;-90
2023/02/24 04:44:24;;;;;;;53.70;29.67;;;;;;;8.12;100.00;97549.47;5093958;28;20278;-90
2023/02/24 04:46:51;;;;;;;63.87;31.07;;;;;;;8.03;100.00;97545.69;5098214;28;20205;-90
2023/02/24 04:49:18;;;;;;;59.93;31.50;;;;;;;8.04;100.00;97542.13;5095053;28;20210;-91
2023/02/24 04:51:46;;;;;;;58.17;30.10;;;;;;;8.03;100.00;97544.88;5092329;28;20235;-90
2023/02/24 04:54:17;;;;;;;62.23;31.73;;;;;;;8.01;100.00;97536.22;5092325;28;20213;-90
2023/02/24 04:56:43;;;;;;;70.43;32.93;;;;;;;7.97;100.00;97529.50;5091756;28;20266;-92
2023/02/24 04:59:10;;;;;;;61.93;31.30;;;;;;;8.00;100.00;97524.84;5091940;28;20207;-90
2023/02/24 05:01:39;;;;;;;62.07;31.67;;;;;;;7.97;100.00;97524.22;5091865;28;20231;-90
2023/02/24 05:04:07;;;;;;;69.93;32.87;;;;;;;7.99;100.00;97522.31;5091959;28;20728;-90
2023/02/24 05:06:34;;;;;;;59.30;31.77;;;;;;;8.04;100.00;97514.97;5091708;28;20239;-90
2023/02/24 05:09:09;;;;;;;61.67;30.37;;;;;;;8.05;100.00;97514.88;5091253;28;20286;-90
2023/02/24 05:11:37;;;;;;;64.83;30.87;;;;;;;8.04;100.00;97509.69;5091663;28;20231;-90
2023/02/24 05:14:04;;;;;;;62.60;30.37;;;;;;;8.06;100.00;97508.66;5094426;28;20205;-90
2023/02/24 05:16:30;;;;;;;58.03;30.10;;;;;;;8.08;100.00;97511.19;5094728;28;20212;-90
2023/02/24 05:21:37;;;;;;;58.50;30.50;;;;;;;8.08;100.00;97498.03;5093934;28;20232;-90
2023/02/24 05:24:05;;;;;;;58.27;29.87;;;;;;;8.05;100.00;97490.31;5095927;28;20222;-89
2023/02/24 05:26:32;;;;;;;60.03;30.13;;;;;;;8.09;100.00;97497.06;5101792;28;20242;-90
2023/02/24 05:29:00;;;;;;;63.47;31.67;;;;;;;8.08;100.00;97482.25;5100908;28;20250;-89
2023/02/24 05:31:29;;;;;;;58.93;29.77;;;;;;;8.06;100.00;97481.47;5100794;28;20408;-89
2023/02/24 05:33:58;;;;;;;64.77;31.23;;;;;;;8.03;100.00;97479.06;5099390;28;20290;-90
2023/02/24 05:36:28;;;;;;;55.13;29.27;;;;;;;8.06;100.00;97482.34;5095143;28;20214;-90
2023/02/24 05:38:58;;;;;;;58.57;31.90;;;;;;;8.10;100.00;97477.69;5095115;28;20604;-91
2023/02/24 05:41:31;;;;;;;61.47;30.43;;;;;;;8.10;100.00;97478.56;5095424;28;20233;-90
2023/02/24 05:44:03;;;;;;;58.17;30.70;;;;;;;8.16;100.00;97477.28;5095241;28;20214;-91
2023/02/24 05:46:32;;;;;;;57.87;29.40;;;;;;;8.13;100.00;97472.19;5095130;28;20619;-91
2023/02/24 05:49:01;;;;;;;61.70;31.73;;;;;;;8.08;100.00;97476.97;5094983;28;20231;-90
2023/02/24 05:51:33;;;;;;;60.07;30.57;;;;;;;8.09;100.00;97476.03;5095055;28;20342;-90
2023/02/24 05:54:03;;;;;;;55.30;29.93;;;;;;;8.10;100.00;97473.28;5094973;28;20203;-90
2023/02/24 05:56:30;;;;;;;56.33;29.87;;;;;;;8.12;100.00;97470.53;5094457;28;20257;-90
2023/02/24 05:59:01;;;;;;;56.80;28.50;;;;;;;8.11;100.00;97468.84;5094335;28;20207;-89
2023/02/24 06:01:29;;;;;;;58.17;30.10;;;;;;;8.09;100.00;97473.38;5094582;28;20730;-90
2023/02/24 06:04:04;;;;;;;56.50;30.07;;;;;;;8.08;100.00;97469.91;5094383;28;20254;-90
2023/02/24 06:06:33;;;;;;;59.40;30.03;;;;;;;8.11;100.00;97468.84;5094478;28;20216;-90
2023/02/24 06:09:06;;;;;;;60.70;30.27;;;;;;;8.08;100.00;97463.81;5094378;28;20304;-89
2023/02/24 06:11:32;;;;;;;57.80;29.57;;;;;;;8.07;100.00;97464.75;5094092;28;20227;-89
2023/02/24 06:14:00;;;;;;;56.67;28.73;;;;;;;8.08;100.00;97459.38;5093889;28;20206;-89
2023/02/24 06:16:28;;;;;;;58.10;29.50;;;;;;;8.07;100.00;97457.69;5093591;28;20207;-89
2023/02/24 06:18:56;;;;;;;63.13;31.40;;;;;;;8.09;100.00;97457.59;5093902;28;20213;-88
2023/02/24 06:21:24;;;;;;;69.20;32.83;;;;;;;8.02;100.00;97458.97;5093874;28;20224;-89
2023/02/24 06:23:50;;;;;;;63.87;31.60;;;;;;;8.01;100.00;97457.28;5093677;28;20237;-89
2023/02/24 06:26:19;;;;;;;66.90;31.97;;;;;;;8.00;100.00;97453.81;5093109;28;20235;-89
2023/02/24 06:28:45;;;;;;;68.23;33.90;;;;;;;7.96;100.00;97454.97;5093954;28;20234;-89
2023/02/24 06:31:14;;;;;;;71.17;32.97;;;;;;;7.96;100.00;97454.97;5108918;22;20230;-80
2023/02/24 06:33:41;;;;;;;70.40;31.97;;;;;;;7.90;100.00;97449.31;5093385;28;20219;-80
2023/02/24 06:36:08;;;;;;;73.33;33.43;;;;;;;7.85;100.00;97456.66;5092883;28;20206;-81
2023/02/24 06:38:36;;;;;;;70.10;30.87;;;;;;;7.89;100.00;97450.25;5093098;28;20210;-80
2023/02/24 06:41:09;;;;;;;69.03;31.07;;;;;;;7.93;100.00;97449.06;5092977;28;20238;-81
2023/02/24 06:43:37;;;;;;;74.23;29.90;;;;;;;7.96;100.00;97451.50;5093274;28;20226;-80
2023/02/24 06:46:04;;;;;;;66.97;30.00;;;;;;;7.98;100.00;97449.59;5092847;28;20724;-81
2023/02/24 06:48:33;;;;;;;61.10;27.03;;;;;;;7.97;100.00;97445.28;5092800;28;20624;-80
2023/02/24 06:51:03;;;;;;;62.17;28.93;;;;;;;8.02;100.00;97448.44;5092817;28;20853;-80
2023/02/24 06:53:33;;;;;;;58.90;28.17;;;;;;;8.04;100.00;97436.03;5092955;28;20218;-80
2023/02/24 06:56:05;;;;;;;62.13;28.17;;;;;;;8.02;100.00;97446.66;5092994;28;20587;-80
2023/02/24 06:58:32;;;;;;;62.77;28.90;;;;;;;8.02;100.00;97444.00;5092831;28;20260;-80
2023/02/24 07:01:01;;;;;;;65.10;28.80;;;;;;;7.98;100.00;97441.72;5092714;28;20588;-80
2023/02/24 07:03:38;;;;;;;66.63;27.40;;;;;;;7.98;100.00;97439.09;5092611;28;20702;-80
2023/02/24 07:08:47;;;;;;;59.23;26.97;;;;;;;8.04;100.00;97441.28;5088855;28;20666;-79
2023/02/24 07:11:17;;;;;;;55.73;27.13;;;;;;;8.06;100.00;97439.38;5092458;28;20234;-80
2023/02/24 07:13:46;;;;;;;57.70;26.50;;;;;;;8.11;100.00;97437.28;5092480;28;20214;-81
2023/02/24 07:16:14;;;;;;;53.17;24.73;;;;;;;8.14;100.00;97437.06;5092087;28;20211;-82
2023/02/24 07:18:42;;;;;;;63.17;28.17;;;;;;;8.14;100.00;97443.16;5093485;28;20678;-84
2023/02/24 07:21:11;;;;;;;59.50;26.77;;;;;;;8.14;100.00;97437.06;5092578;28;20229;-80
2023/02/24 07:23:39;;;;;;;54.30;26.73;;;;;;;8.06;100.00;97442.00;5092546;28;20234;-80
2023/02/24 07:26:10;;;;;;;59.20;28.33;;;;;;;8.10;100.00;97432.97;5092287;28;20294;-80
2023/02/24 07:28:38;;;;;;;56.67;26.97;;;;;;;8.08;100.00;97430.44;5092186;28;20251;-81
2023/02/24 07:31:07;;;;;;;52.77;26.33;;;;;;;8.13;100.00;97430.94;5091996;28;20716;-81
2023/02/24 07:33:35;;;;;;;48.60;25.60;;;;;;;8.16;100.00;97437.78;5092362;28;20583;-81
2023/02/24 07:36:07;;;;;;;54.73;26.50;;;;;;;8.19;100.00;97430.56;5091063;28;20262;-80
2023/02/24 07:38:36;;;;;;;56.13;26.23;;;;;;;8.25;100.00;97424.84;5092127;28;20570;-81
2023/02/24 07:41:05;;;;;;;48.63;24.30;;;;;;;8.30;100.00;97432.41;5091863;28;20608;-81
2023/02/24 07:43:32;;;;;;;51.13;26.13;;;;;;;8.33;100.00;97427.78;5091872;28;20215;-81
2023/02/24 07:46:05;;;;;;;53.73;26.20;;;;;;;8.31;100.00;97423.56;5091801;28;20586;-78
2023/02/24 07:48:31;;;;;;;55.77;27.27;;;;;;;8.31;100.00;97423.56;5070481;28;20209;-79
2023/02/24 07:50:58;;;;;;;54.53;26.00;;;;;;;8.32;100.00;97420.00;5070023;28;20247;-82
2023/02/24 07:53:26;;;;;;;51.67;24.90;;;;;;;8.40;100.00;97423.75;5071691;28;20212;-84
2023/02/24 07:55:54;;;;;;;49.30;24.07;;;;;;;8.42;100.00;97421.88;5071442;28;20236;-83
2023/02/24 07:58:22;;;;;;;50.97;25.37;;;;;;;8.43;100.00;97422.69;5070516;28;20219;-77
2023/02/24 08:00:59;;;;;;;57.63;27.03;;;;;;;8.49;100.00;97422.25;5071421;28;20252;-77
2023/02/24 08:03:28;;;;;;;49.87;24.90;;;;;;;8.49;100.00;97422.25;5071397;28;20252;-76
2023/02/24 08:06:11;;;;;;;48.80;23.07;;;;;;;8.51;100.00;97421.19;5071501;28;20212;-79
2023/02/24 08:08:56;;;;;;;53.33;24.43;;;;;;;8.59;100.00;97415.38;5071544;28;20234;-78
2023/02/24 08:11:25;;;;;;;52.47;25.73;;;;;;;8.64;100.00;97410.63;5071430;28;20323;-79
2023/02/24 08:13:52;;;;;;;53.50;24.77;;;;;;;8.69;100.00;97404.06;5071450;28;20209;-79
2023/02/24 08:16:18;;;;;;;55.53;26.33;;;;;;;8.71;100.00;97412.69;5070845;28;20210;-79
2023/02/24 08:18:47;;;;;;;48.83;23.10;;;;;;;8.74;100.00;97401.06;5071102;28;20213;-79
2023/02/24 08:21:15;;;;;;;46.93;23.13;;;;;;;8.83;100.00;97401.25;5071120;28;20416;-79
2023/02/24 08:23:44;;;;;;;53.37;24.63;;;;;;;8.86;100.00;97402.81;5071401;28;20252;-79
2023/02/24 08:26:11;;;;;;;48.23;23.20;;;;;;;8.91;100.00;97400.69;5070978;28;20459;-79
2023/02/24 08:28:39;;;;;;;49.70;23.77;;;;;;;8.88;100.00;97398.28;5071229;28;20685;-79
2023/02/24 08:31:06;;;;;;;46.97;23.53;;;;;;;8.91;100.00;97400.69;5070963;28;20240;-79
2023/02/24 08:33:36;;;;;;;48.70;23.60;;;;;;;8.98;100.00;97399.25;5070990;28;20219;-79
2023/02/24 08:36:02;;;;;;;47.00;24.00;;;;;;;9.07;100.00;97388.88;5070915;28;20267;-79
2023/02/24 08:38:40;;;;;;;46.17;22.63;;;;;;;9.08;100.00;97392.38;5070941;28;20200;-79
2023/02/24 08:41:16;;;;;;;49.67;23.13;;;;;;;9.16;100.00;97387.34;5071115;28;20222;-79
2023/02/24 08:43:45;;;;;;;43.03;20.83;;;;;;;9.18;100.00;97374.91;5070952;28;20232;-79
2023/02/24 08:46:24;;;;;;;45.43;22.63;;;;;;;9.29;100.00;97382.81;5070847;28;20286;-78
2023/02/24 08:48:55;;;;;;;47.77;22.00;;;;;;;9.29;100.00;97377.56;5073921;28;20565;-78
2023/02/24 08:51:27;;;;;;;43.90;21.97;;;;;;;9.35;100.00;97377.94;5074928;28;20229;-78
2023/02/24 08:53:56;;;;;;;51.20;22.87;;;;;;;9.35;100.00;97377.09;5074981;28;20214;-78
2023/02/24 08:56:24;;;;;;;41.97;22.80;;;;;;;9.31;100.00;97370.38;5074727;28;20220;-78
2023/02/24 08:58:56;;;;;;;43.67;21.93;;;;;;;9.35;100.00;97366.53;5075183;28;20212;-78
2023/02/24 09:01:26;;;;;;;41.93;21.60;;;;;;;9.41;100.00;97360.78;5074896;28;20282;-78
2023/02/24 09:03:55;;;;;;;44.53;22.83;;;;;;;9.54;100.00;97361.56;5074711;28;20205;-78
2023/02/24 09:06:25;;;;;;;45.80;24.00;;;;;;;9.50;100.00;97355.69;5074403;28;20301;-78
2023/02/24 09:09:16;;;;;;;45.33;23.43;;;;;;;9.53;100.00;97359.84;5074779;28;20688;-78
2023/02/24 09:11:43;;;;;;;44.00;21.93;;;;;;;9.45;100.00;97364.88;5074568;28;20250;-78
2023/02/24 09:14:16;;;;;;;42.47;21.60;;;;;;;9.44;100.00;97360.56;5074846;28;20212;-78
2023/02/24 09:17:00;;;;;;;41.27;20.13;;;;;;;9.21;100.00;97364.13;5074609;28;20210;-78
2023/02/24 09:20:35;;;;;;;41.87;20.60;;;;;;;9.15;100.00;97356.66;5074806;28;20215;-78
2023/02/24 09:22:56;;;;;;;42.77;21.73;;;;;;;9.11;100.00;97352.63;5089670;28;20239;-79
2023/02/24 09:25:24;;;;;;;43.20;20.60;;;;;;;9.19;100.00;97360.75;5086241;28;20226;-79
2023/02/24 09:27:54;;;;;;;44.50;21.53;;;;;;;9.24;100.00;97353.34;5082114;28;20210;-79
2023/02/24 09:30:35;;;;;;;44.80;21.33;;;;;;;9.24;100.00;97353.34;5079718;28;20206;-84
2023/02/24 09:33:06;;;;;;;43.17;20.93;;;;;;;9.30;100.00;97347.63;5074639;28;20222;-76
2023/02/24 09:35:35;;;;;;;44.43;21.67;;;;;;;9.35;100.00;97342.81;5074063;28;20573;-77
2023/02/24 09:38:04;;;;;;;46.87;22.40;;;;;;;9.36;100.00;97339.22;5073875;28;20699;-76
2023/02/24 09:40:39;;;;;;;43.40;21.53;;;;;;;9.42;100.00;97336.94;5073911;28;20281;-77
2023/02/24 09:43:09;;;;;;;49.07;22.40;;;;;;;9.43;100.00;97335.97;5073907;28;20258;-77
2023/02/24 09:45:39;;;;;;;45.43;22.03;;;;;;;9.46;100.00;97333.13;5073981;28;20606;-77
2023/02/24 09:48:15;;;;;;;38.90;19.77;;;;;;;9.54;100.00;97330.72;5073518;28;20690;-77
2023/02/24 09:50:59;;;;;;;41.20;19.10;;;;;;;9.68;100.00;97327.03;5074114;28;20233;-78
2023/02/24 09:53:32;;;;;;;41.77;18.27;;;;;;;9.81;100.00;97320.66;5074073;28;20316;-78
2023/02/24 09:56:05;;;;;;;39.10;18.77;;;;;;;9.97;100.00;97318.47;5073880;28;20280;-78
2023/02/24 09:58:39;;;;;;;34.63;17.00;;;;;;;9.86;100.00;97304.47;5073244;28;20214;-78
2023/02/24 10:01:29;;;;;;;31.10;15.17;;;;;;;10.10;100.00;97302.53;5073118;28;20240;-78
2023/02/24 10:04:04;;;;;;;28.70;15.20;;;;;;;9.93;100.00;97289.81;5073678;28;20590;-78
2023/02/24 10:06:36;;;;;;;27.27;14.30;;;;;;;9.95;100.00;97298.44;5073473;28;20229;-77
2023/02/24 10:09:11;;;;;;;30.20;16.03;;;;;;;9.95;100.00;97299.28;5073448;28;20214;-76
2023/02/24 10:11:47;;;;;;;31.83;15.03;;;;;;;9.84;100.00;97301.13;5073701;28;20231;-77
2023/02/24 10:14:18;;;;;;;26.20;14.67;;;;;;;9.90;100.00;97301.44;5073408;28;20226;-77
2023/02/24 10:17:21;;;;;;;31.17;15.23;;;;;;;10.07;100.00;97302.78;5073435;28;20253;-78
2023/02/24 10:19:34;;;;;;;27.37;14.30;;;;;;;9.92;100.00;97296.06;5073032;28;20214;-78
2023/02/24 10:22:06;;;;;;;29.50;14.83;;;;;;;9.87;100.00;97300.88;5073397;28;20228;-78
2023/02/24 10:24:40;;;;;;;37.47;16.40;;;;;;;9.84;100.00;97303.75;5073284;28;20239;-77
2023/02/24 10:27:12;;;;;;;34.90;17.37;;;;;;;9.68;100.00;97305.91;5073072;28;20245;-83
2023/02/24 10:29:54;;;;;;;33.57;16.13;;;;;;;9.74;100.00;97305.44;5072336;28;20213;-83
2023/02/24 10:32:32;;;;;;;39.70;20.23;;;;;;;9.70;100.00;97306.63;5071599;28;20245;-83
2023/02/24 10:35:00;;;;;;;40.37;18.47;;;;;;;9.75;100.00;97307.09;5071962;28;20200;-83
2023/02/24 10:37:27;;;;;;;46.73;21.47;;;;;;;9.58;100.00;97292.59;5071852;28;20540;-83
2023/02/24 10:39:57;;;;;;;50.33;22.97;;;;;;;9.37;100.00;97302.19;5075262;28;20216;-83
2023/02/24 10:42:25;;;;;;;50.90;23.00;;;;;;;9.37;100.00;97301.34;5091041;28;20231;-83
2023/02/24 10:45:10;;;;;;;50.40;21.90;;;;;;;9.36;100.00;97295.22;5092244;28;20739;-83
2023/02/24 10:47:43;;;;;;;52.57;22.43;;;;;;;9.29;100.00;97290.53;5092832;28;20204;-84
2023/02/24 10:50:21;;;;;;;48.87;23.40;;;;;;;9.31;100.00;97286.00;5093357;28;20212;-84
2023/02/24 10:53:09;;;;;;;52.87;22.33;;;;;;;9.29;100.00;97280.84;5093693;28;20215;-87
2023/02/24 10:55:53;;;;;;;53.43;22.13;;;;;;;9.16;100.00;97279.25;5093188;28;20341;-79
2023/02/24 10:58:36;;;;;;;49.97;22.13;;;;;;;9.30;100.00;97273.78;5092563;28;20212;-82
2023/02/24 11:01:17;;;;;;;58.50;23.80;;;;;;;9.15;100.00;97267.03;5092562;28;20232;-82
2023/02/24 11:04:00;;;;;;;56.13;22.33;;;;;;;9.11;100.00;97255.09;5092956;28;20206;-81
2023/02/24 11:09:31;;;;;;;47.17;21.37;;;;;;;9.31;100.00;97255.19;5078954;28;20557;-81
2023/02/24 11:17:37;;;;;;;48.27;21.83;;;;;;;9.31;100.00;97249.09;5092095;28;20750;-83
2023/02/24 11:20:16;;;;;;;48.57;21.90;;;;;;;9.33;100.00;97239.25;5092159;28;20207;-81
2023/02/24 11:22:47;;;;;;;48.63;21.50;;;;;;;9.33;100.00;97241.91;5092515;28;20214;-81
2023/02/24 11:25:21;;;;;;;50.03;22.00;;;;;;;9.30;100.00;97236.88;5092297;28;20260;-81
2023/02/24 11:27:48;;;;;;;50.97;21.20;;;;;;;9.22;100.00;97224.28;5092008;28;20213;-81
2023/02/24 11:30:23;;;;;;;55.60;22.97;;;;;;;9.21;100.00;97229.66;5091835;28;20706;-81
2023/02/24 11:33:05;;;;;;;53.70;22.23;;;;;;;9.18;100.00;97222.00;5092103;28;20224;-83
2023/02/24 11:35:40;;;;;;;46.87;21.10;;;;;;;9.18;100.00;97222.00;5091911;28;20707;-82
2023/02/24 11:38:26;;;;;;;49.37;19.93;;;;;;;9.22;100.00;97212.88;5091775;28;20297;-81
2023/02/24 11:41:01;;;;;;;49.40;22.97;;;;;;;9.26;100.00;97209.91;5091881;28;20653;-80
2023/02/24 11:43:32;;;;;;;52.67;22.40;;;;;;;9.39;100.00;97207.13;5092263;28;20214;-82
2023/02/24 11:46:04;;;;;;;48.27;22.70;;;;;;;9.40;100.00;97200.91;5091796;28;20223;-80
2023/02/24 11:48:36;;;;;;;51.07;22.13;;;;;;;9.40;100.00;97196.47;5091946;28;20218;-80
2023/02/24 11:51:07;;;;;;;49.77;21.23;;;;;;;9.25;100.00;97186.28;5091496;28;20225;-80
2023/02/24 11:53:36;;;;;;;52.20;23.10;;;;;;;9.36;100.00;97181.03;5091771;28;20239;-80
2023/02/24 11:56:08;;;;;;;48.47;22.90;;;;;;;9.45;100.00;97162.66;5091782;28;20225;-80